createdAt,value
2017-11-14T00:04:35.115Z,32.2
2017-11-14T00:14:51.393Z,31.5
2017-11-14T00:25:07.680Z,31.5
2017-11-14T00:35:22.842Z,31.3
2017-11-14T00:45:38.675Z,31.8
2017-11-14T00:55:54.281Z,31.4
2017-11-14T01:06:09.635Z,31.6
2017-11-14T01:16:25.052Z,31.3
2017-11-14T01:26:39.621Z,31.2
2017-11-14T01:36:55.688Z,31.2
2017-11-14T01:47:10.866Z,31.4
2017-11-14T01:57:25.265Z,31.4
2017-11-14T02:07:41.279Z,31.5
2017-11-14T02:17:56.621Z,31.6
2017-11-14T02:28:12.804Z,31.6
2017-11-14T02:38:28.103Z,31.6
2017-11-14T02:48:43.671Z,31.6
2017-11-14T02:58:59.408Z,31.7
2017-11-14T03:09:14.438Z,31.5
2017-11-14T03:19:28.794Z,31.3
2017-11-14T03:29:44.163Z,31.3
2017-11-14T03:39:59.442Z,31.4
2017-11-14T03:50:15.085Z,31.5
2017-11-14T04:00:31.232Z,31.3
2017-11-14T04:10:46.646Z,31.3
2017-11-14T04:21:01.203Z,31.5
2017-11-14T04:31:16.173Z,31.8
2017-11-14T04:41:31.461Z,31.6
2017-11-14T04:51:46.753Z,31.7
2017-11-14T05:02:02.424Z,31.8
2017-11-14T05:12:17.362Z,31.9
2017-11-14T05:22:33.122Z,31.8
2017-11-14T05:32:49.086Z,31.8
2017-11-14T05:43:04.671Z,31.9
2017-11-14T05:53:20.230Z,32
2017-11-14T06:03:35.551Z,31.9
2017-11-14T06:13:51.608Z,31.9
2017-11-14T06:24:07.457Z,31.4
2017-11-14T06:34:22.188Z,31.7
2017-11-14T06:44:36.532Z,31.8
2017-11-14T06:54:52.452Z,31.7
2017-11-14T07:05:07.454Z,31.8
2017-11-14T07:15:22.768Z,31.5
2017-11-14T07:25:37.095Z,31.3
2017-11-14T07:35:51.913Z,31.4
2017-11-14T07:46:08.129Z,31.4
2017-11-14T07:56:24.295Z,31.3
2017-11-14T08:06:39.770Z,31.3
2017-11-14T08:16:55.420Z,31.4
2017-11-14T08:27:10.094Z,31.5
2017-11-14T08:37:24.842Z,31.8
2017-11-14T08:47:40.968Z,31.8
2017-11-14T08:57:56.710Z,31.6
2017-11-14T09:08:11.865Z,32.1
2017-11-14T09:18:27.055Z,32.8
2017-11-14T09:28:41.971Z,33.9
2017-11-14T09:38:58.066Z,35.9
2017-11-14T09:49:13.322Z,38.7
2017-11-14T09:59:29.448Z,44.1
2017-11-14T10:09:45.730Z,49.4
2017-11-14T10:20:00.419Z,58
2017-11-14T10:30:15.816Z,68.5
2017-11-14T10:40:32.032Z,74.7
2017-11-14T10:50:47.520Z,81.4
2017-11-14T11:01:02.173Z,94.7
2017-11-14T11:11:17.122Z,96.2
2017-11-14T11:21:32.375Z,100
2017-11-14T11:31:48.613Z,100
2017-11-14T11:42:04.861Z,100
2017-11-14T11:52:20.530Z,100
2017-11-14T12:02:35.667Z,100
2017-11-14T12:12:51.173Z,100
2017-11-14T12:23:05.815Z,100
2017-11-14T12:33:20.282Z,100
2017-11-14T12:43:34.687Z,100
2017-11-14T12:53:50.121Z,100
2017-11-14T13:04:05.204Z,100
2017-11-14T13:14:20.838Z,100
2017-11-14T13:24:36.091Z,100
2017-11-14T13:34:51.416Z,100
2017-11-14T13:45:06.810Z,100
2017-11-14T13:55:22.713Z,100
2017-11-14T14:05:38.195Z,100
2017-11-14T14:15:53.395Z,100
2017-11-14T14:26:09.498Z,100
2017-11-14T14:36:25.234Z,100
2017-11-14T14:46:41.561Z,100
2017-11-14T14:56:56.482Z,100
2017-11-14T15:07:12.501Z,100
2017-11-14T15:17:28.389Z,97.5
2017-11-14T15:27:44.185Z,97.8
2017-11-14T15:38:00.351Z,95
2017-11-14T15:48:14.976Z,93.9
2017-11-14T15:58:29.574Z,93.1
2017-11-14T16:08:44.973Z,91.4
2017-11-14T16:18:59.771Z,87.4
2017-11-14T16:29:16.030Z,87.3
2017-11-14T16:39:32.383Z,87.4
2017-11-14T16:49:48.643Z,89.6
2017-11-14T17:00:04.249Z,90
2017-11-14T17:10:20.455Z,91
2017-11-14T17:20:35.521Z,90.9
2017-11-14T17:30:51.249Z,90.8
2017-11-14T17:41:06.515Z,90.4
2017-11-14T17:51:22.532Z,88.7
2017-11-14T18:01:38.523Z,83.4
2017-11-14T18:11:54.232Z,73.6
2017-11-14T18:22:09.841Z,63.7
2017-11-14T18:32:25.617Z,54.3
2017-11-14T18:42:41.316Z,47.8
2017-11-14T18:52:56.933Z,44.1
2017-11-14T19:03:11.875Z,41.2
2017-11-14T19:13:27.014Z,40
2017-11-14T19:23:43.266Z,38.8
2017-11-14T19:33:59.457Z,37.8
2017-11-14T19:44:14.565Z,36.9
2017-11-14T19:54:30.749Z,35.8
2017-11-14T20:04:46.785Z,34.8
2017-11-14T20:15:02.512Z,34.2
2017-11-14T20:25:17.362Z,33.5
2017-11-14T20:35:32.869Z,33.2
2017-11-14T20:45:49.167Z,33.2
2017-11-14T20:56:04.723Z,32.7
2017-11-14T21:06:20.099Z,32.8
2017-11-14T21:16:36.258Z,31.7
2017-11-14T21:26:51.763Z,31.4
2017-11-14T21:37:07.020Z,31.1
2017-11-14T21:47:21.941Z,30.9
2017-11-14T21:57:37.241Z,30.9
2017-11-14T22:07:52.297Z,31.4
2017-11-14T22:18:07.574Z,31.9
2017-11-14T22:28:23.589Z,33.5
2017-11-14T22:38:39.038Z,34.9
2017-11-14T22:48:54.172Z,36.3
2017-11-14T22:59:10.400Z,38
2017-11-14T23:09:25.534Z,38.3
2017-11-14T23:19:41.186Z,39.4
2017-11-14T23:29:56.689Z,39.8
2017-11-14T23:40:11.068Z,40
2017-11-14T23:50:25.528Z,39.9
